Time;durP1;ratioP1;P1;durP2;ratioP2;P2;SDS_P1;SDS_P2;PMS_P1;PMS_P2;Temp;Humidity;BMP_temperature;BMP_pressure;BME280_temperature;BME280_humidity;BME280_pressure;Samples;Min_cycle;Max_cycle;Signal;HPM_P1;HPM_P2
2021/06/29 00:00:01;;;;;;;44.58;20.92;;;15.50;99.90;;;;;;5072759;28;20115;-60
2021/06/29 00:02:27;;;;;;;47.67;20.48;;;15.50;99.90;;;;;;5071237;28;20025;-62
2021/06/29 00:04:53;;;;;;;50.25;20.20;;;15.50;99.90;;;;;;5071019;28;20037;-60
2021/06/29 00:07:19;;;;;;;49.95;20.83;;;15.50;99.90;;;;;;5072452;28;20342;-61
2021/06/29 00:09:46;;;;;;;49.05;20.52;;;15.50;99.90;;;;;;5073795;28;20024;-61
2021/06/29 00:12:12;;;;;;;42.28;19.00;;;15.50;99.90;;;;;;5071436;28;20098;-61
2021/06/29 00:14:40;;;;;;;41.08;19.15;;;15.50;99.90;;;;;;5081432;28;20039;-59
2021/06/29 00:17:08;;;;;;;43.85;19.27;;;15.50;99.90;;;;;;5084994;28;20122;-61
2021/06/29 00:19:34;;;;;;;41.17;18.48;;;15.50;99.90;;;;;;5077225;28;20039;-61
2021/06/29 00:21:59;;;;;;;36.38;17.98;;;15.50;99.90;;;;;;5074031;28;20107;-59
2021/06/29 00:24:25;;;;;;;41.10;18.48;;;15.40;99.90;;;;;;5071956;28;20029;-60
2021/06/29 00:26:51;;;;;;;36.97;17.33;;;15.40;99.90;;;;;;5077308;28;20160;-62
2021/06/29 00:29:16;;;;;;;37.70;16.35;;;15.40;99.90;;;;;;5070286;28;20052;-61
2021/06/29 00:31:42;;;;;;;36.92;16.65;;;15.40;99.90;;;;;;5073750;28;20367;-61
2021/06/29 00:34:08;;;;;;;33.13;15.75;;;15.30;99.90;;;;;;5073704;28;20028;-63
2021/06/29 00:36:34;;;;;;;33.92;14.95;;;15.30;99.90;;;;;;5072651;28;20107;-61
2021/06/29 00:38:59;;;;;;;35.78;15.55;;;15.30;99.90;;;;;;5071863;28;20068;-60
2021/06/29 00:41:25;;;;;;;33.25;15.55;;;15.30;99.90;;;;;;5076429;28;20036;-61
2021/06/29 00:43:53;;;;;;;28.27;14.30;;;15.20;99.90;;;;;;5070369;28;20426;-61
2021/06/29 00:46:19;;;;;;;38.10;14.95;;;15.20;99.90;;;;;;5088337;28;20078;-62
2021/06/29 00:48:46;;;;;;;32.35;15.20;;;15.20;99.90;;;;;;5075746;28;20040;-61
2021/06/29 00:51:16;;;;;;;36.53;14.65;;;15.20;99.90;;;;;;5071320;28;20039;-59
2021/06/29 00:53:43;;;;;;;25.75;14.38;;;15.20;99.90;;;;;;5071205;28;20029;-60
2021/06/29 00:56:13;;;;;;;34.05;14.23;;;15.20;99.90;;;;;;5075109;28;20032;-60
2021/06/29 00:58:44;;;;;;;26.42;14.15;;;15.20;99.90;;;;;;5070907;28;20064;-60
2021/06/29 01:01:10;;;;;;;31.20;14.25;;;15.20;99.90;;;;;;5075805;28;20397;-60
2021/06/29 01:03:40;;;;;;;24.80;14.05;;;15.10;99.90;;;;;;5075301;28;20037;-59
2021/06/29 01:06:08;;;;;;;29.45;14.10;;;15.10;99.90;;;;;;5080590;28;20552;-60
2021/06/29 01:08:34;;;;;;;29.45;13.75;;;15.10;99.90;;;;;;5080159;28;20028;-60
2021/06/29 01:11:00;;;;;;;23.88;13.80;;;15.10;99.90;;;;;;5073860;28;20048;-61
2021/06/29 01:13:34;;;;;;;25.60;14.60;;;15.10;99.90;;;;;;5070848;28;20028;-61
2021/06/29 01:16:02;;;;;;;26.20;13.68;;;15.10;99.90;;;;;;5070385;28;20108;-60
2021/06/29 01:18:28;;;;;;;20.02;13.65;;;15.10;99.90;;;;;;5070673;28;20458;-61
2021/06/29 01:20:55;;;;;;;30.67;14.32;;;15.10;99.90;;;;;;5073851;28;20551;-60
2021/06/29 01:23:23;;;;;;;24.50;13.32;;;15.10;99.90;;;;;;5071383;28;20024;-61
2021/06/29 01:26:20;;;;;;;23.40;12.82;;;15.10;99.90;;;;;;5070578;28;20028;-62
2021/06/29 01:28:59;;;;;;;25.02;13.43;;;15.10;99.90;;;;;;5069247;28;20032;-61
2021/06/29 01:31:25;;;;;;;28.52;13.43;;;15.00;99.90;;;;;;5070111;28;20040;-60
2021/06/29 01:33:51;;;;;;;23.20;13.25;;;15.10;99.90;;;;;;5071597;28;20444;-59
2021/06/29 01:36:19;;;;;;;27.13;13.52;;;15.10;99.90;;;;;;5076980;28;20044;-61
2021/06/29 01:38:46;;;;;;;22.50;12.50;;;15.10;99.90;;;;;;5072884;28;20090;-61
2021/06/29 01:41:14;;;;;;;29.02;12.98;;;15.10;99.90;;;;;;5081049;28;20032;-60
2021/06/29 01:43:55;;;;;;;27.05;13.43;;;15.00;99.90;;;;;;5074007;28;20307;-59
2021/06/29 01:46:23;;;;;;;25.30;12.38;;;14.90;99.90;;;;;;5072391;28;20024;-61
2021/06/29 01:48:50;;;;;;;26.35;12.77;;;15.00;99.90;;;;;;5078423;28;20496;-60
2021/06/29 01:51:17;;;;;;;21.85;12.25;;;14.90;99.90;;;;;;5072778;28;20040;-60
2021/06/29 01:53:45;;;;;;;22.05;11.45;;;15.00;99.90;;;;;;5075116;28;20547;-62
2021/06/29 01:56:14;;;;;;;23.88;11.63;;;15.00;99.90;;;;;;5069577;28;20036;-60
2021/06/29 01:58:53;;;;;;;29.02;10.95;;;15.00;99.90;;;;;;5069921;28;20032;-61
2021/06/29 02:01:20;;;;;;;25.33;10.02;;;15.00;99.90;;;;;;5071892;28;20493;-60
2021/06/29 02:03:46;;;;;;;21.33;9.95;;;15.00;99.90;;;;;;5075038;28;20025;-62
2021/06/29 02:06:14;;;;;;;21.73;9.98;;;15.10;99.90;;;;;;5071269;28;20032;-61
2021/06/29 02:08:39;;;;;;;16.63;9.75;;;15.00;99.90;;;;;;5069639;28;20033;-62
2021/06/29 02:11:05;;;;;;;16.85;9.32;;;15.10;99.90;;;;;;5070593;28;20086;-61
2021/06/29 02:13:31;;;;;;;20.25;10.07;;;15.00;99.90;;;;;;5070656;28;20024;-60
2021/06/29 02:15:58;;;;;;;21.05;9.25;;;15.00;99.90;;;;;;5070745;28;20055;-61
2021/06/29 02:18:24;;;;;;;19.73;9.30;;;15.00;99.90;;;;;;5070807;28;20351;-62
2021/06/29 02:20:50;;;;;;;13.85;9.05;;;15.00;99.90;;;;;;5073067;28;20081;-60
2021/06/29 02:23:16;;;;;;;18.50;9.25;;;15.00;99.90;;;;;;5069913;28;20032;-61
2021/06/29 02:25:43;;;;;;;18.00;9.50;;;15.00;99.90;;;;;;5076383;28;20020;-62
2021/06/29 02:28:09;;;;;;;24.17;9.38;;;15.00;99.90;;;;;;5069727;28;20060;-61
2021/06/29 02:30:35;;;;;;;19.38;9.07;;;15.00;99.90;;;;;;5069996;28;20457;-61
2021/06/29 02:33:01;;;;;;;18.27;9.07;;;15.00;99.90;;;;;;5070830;28;20028;-60
2021/06/29 02:35:28;;;;;;;17.67;9.10;;;15.00;99.90;;;;;;5070991;28;20039;-60
2021/06/29 02:37:54;;;;;;;16.00;9.18;;;15.00;99.90;;;;;;5071896;28;20020;-61
2021/06/29 02:40:19;;;;;;;20.20;9.50;;;15.00;99.90;;;;;;5069402;28;20037;-60
2021/06/29 02:42:45;;;;;;;16.52;8.70;;;15.00;99.90;;;;;;5069207;28;20455;-59
2021/06/29 02:45:16;;;;;;;22.77;9.45;;;15.00;99.90;;;;;;5070691;28;20032;-59
2021/06/29 02:47:43;;;;;;;18.35;8.82;;;15.00;99.90;;;;;;5074690;28;20414;-61
2021/06/29 02:50:09;;;;;;;15.10;9.27;;;15.10;99.90;;;;;;5086035;28;20032;-60
2021/06/29 02:52:35;;;;;;;19.38;9.20;;;15.10;99.90;;;;;;5071820;28;20028;-62
2021/06/29 02:55:03;;;;;;;19.27;9.77;;;15.10;99.90;;;;;;5083729;28;20028;-62
2021/06/29 02:57:29;;;;;;;30.42;10.20;;;15.10;99.90;;;;;;5069459;28;21750;-60
2021/06/29 02:59:55;;;;;;;17.52;9.35;;;15.00;99.90;;;;;;5075558;28;20058;-62
2021/06/29 03:02:20;;;;;;;24.85;10.13;;;15.00;99.90;;;;;;5078278;28;20521;-60
2021/06/29 03:04:46;;;;;;;19.42;10.10;;;15.00;99.90;;;;;;5078443;28;20020;-60
2021/06/29 03:07:12;;;;;;;20.60;9.93;;;15.00;99.90;;;;;;5085386;28;20463;-60
2021/06/29 03:09:38;;;;;;;19.67;9.48;;;15.00;99.90;;;;;;5077964;28;20040;-60
2021/06/29 03:12:04;;;;;;;21.70;9.90;;;15.00;99.90;;;;;;5075973;28;20123;-59
2021/06/29 03:14:29;;;;;;;18.13;10.10;;;15.00;99.90;;;;;;5072862;28;20532;-61
2021/06/29 03:16:55;;;;;;;22.70;11.20;;;14.90;99.90;;;;;;5073291;28;20021;-60
2021/06/29 03:19:21;;;;;;;19.67;10.65;;;14.90;99.90;;;;;;5078878;28;20021;-61
2021/06/29 03:21:47;;;;;;;19.75;9.45;;;14.90;99.90;;;;;;5072718;28;20031;-60
2021/06/29 03:24:12;;;;;;;19.98;9.70;;;14.90;99.90;;;;;;5071888;28;20078;-60
2021/06/29 03:26:38;;;;;;;19.55;9.75;;;14.90;99.90;;;;;;5072193;28;20479;-60
2021/06/29 03:29:04;;;;;;;30.27;10.55;;;14.90;99.90;;;;;;5081478;28;20056;-60
2021/06/29 03:31:33;;;;;;;16.58;10.43;;;14.90;99.90;;;;;;5073030;28;20028;-59
2021/06/29 03:33:59;;;;;;;19.63;10.18;;;14.90;99.90;;;;;;5074111;28;20144;-60
2021/06/29 03:36:25;;;;;;;20.48;10.52;;;14.90;99.90;;;;;;5072430;28;20028;-60
2021/06/29 03:38:51;;;;;;;12.95;8.98;;;14.90;99.90;;;;;;5074933;28;20066;-60
2021/06/29 03:41:16;;;;;;;20.30;10.63;;;14.90;99.90;;;;;;5071610;28;20470;-60
2021/06/29 03:43:42;;;;;;;19.88;10.25;;;14.90;99.90;;;;;;5072841;28;20028;-63
2021/06/29 03:46:08;;;;;;;21.27;10.25;;;14.90;99.90;;;;;;5079171;28;20043;-60
2021/06/29 03:48:34;;;;;;;20.85;10.63;;;14.90;99.90;;;;;;5082812;28;20549;-61
2021/06/29 03:51:00;;;;;;;23.15;10.60;;;14.90;99.90;;;;;;5072232;28;20412;-62
2021/06/29 03:53:26;;;;;;;18.98;10.13;;;14.90;99.90;;;;;;5074991;28;20032;-61
2021/06/29 03:55:52;;;;;;;19.30;10.55;;;15.00;99.90;;;;;;5086145;28;20141;-61
2021/06/29 03:58:18;;;;;;;23.08;10.70;;;14.90;99.90;;;;;;5074501;28;20020;-59
2021/06/29 04:00:44;;;;;;;21.92;10.45;;;14.90;99.90;;;;;;5070978;28;20057;-61
2021/06/29 04:03:10;;;;;;;23.10;11.10;;;14.90;99.90;;;;;;5071891;28;20051;-61
2021/06/29 04:05:36;;;;;;;24.45;10.75;;;14.90;99.90;;;;;;5072615;28;20028;-63
2021/06/29 04:08:02;;;;;;;24.27;11.00;;;14.80;99.90;;;;;;5071695;28;20040;-60
2021/06/29 04:10:27;;;;;;;25.40;11.63;;;14.80;99.90;;;;;;5072497;28;20039;-60
2021/06/29 04:12:53;;;;;;;22.58;11.82;;;14.80;99.90;;;;;;5069654;28;20383;-59
2021/06/29 04:15:19;;;;;;;20.75;10.63;;;14.90;99.90;;;;;;5077596;28;20494;-60
2021/06/29 04:17:44;;;;;;;23.10;12.18;;;14.90;99.90;;;;;;5073200;28;20039;-61
2021/06/29 04:20:11;;;;;;;29.50;11.65;;;14.90;99.90;;;;;;5072611;28;20016;-59
2021/06/29 04:22:36;;;;;;;24.00;12.38;;;14.90;99.90;;;;;;5082218;28;20032;-61
2021/06/29 04:25:07;;;;;;;22.95;12.57;;;14.80;99.90;;;;;;5076698;28;20104;-61
2021/06/29 04:27:33;;;;;;;25.15;12.70;;;14.90;99.90;;;;;;5077989;28;20063;-61
2021/06/29 04:29:59;;;;;;;29.65;13.75;;;14.90;99.90;;;;;;5073273;28;21752;-61
2021/06/29 04:32:25;;;;;;;30.65;14.20;;;14.90;99.90;;;;;;5075291;28;20120;-63
2021/06/29 04:34:51;;;;;;;29.20;13.40;;;14.90;99.90;;;;;;5082135;28;20112;-60
2021/06/29 04:37:17;;;;;;;25.20;14.75;;;14.90;99.90;;;;;;5083677;28;20099;-60
2021/06/29 04:39:44;;;;;;;33.38;14.45;;;14.90;99.90;;;;;;5078709;28;20488;-60
2021/06/29 04:42:10;;;;;;;28.10;13.38;;;14.90;99.90;;;;;;5083482;28;20028;-60
2021/06/29 04:44:38;;;;;;;33.80;14.57;;;14.90;99.90;;;;;;5073167;28;20033;-60
2021/06/29 04:47:05;;;;;;;24.38;13.82;;;14.90;99.90;;;;;;5077033;28;20496;-61
2021/06/29 04:49:32;;;;;;;33.05;15.13;;;14.90;99.90;;;;;;5079027;28;20032;-60
2021/06/29 04:51:58;;;;;;;36.88;13.73;;;14.90;99.90;;;;;;5080533;28;20039;-61
2021/06/29 04:54:24;;;;;;;24.77;13.65;;;14.90;99.90;;;;;;5071206;28;20765;-61
2021/06/29 04:56:50;;;;;;;28.17;13.65;;;14.90;99.90;;;;;;5077245;28;20036;-61
2021/06/29 04:59:16;;;;;;;31.77;14.27;;;14.90;99.90;;;;;;5072031;28;20735;-60
2021/06/29 05:01:42;;;;;;;29.20;14.27;;;14.90;99.90;;;;;;5071111;28;20395;-60
2021/06/29 05:04:08;;;;;;;26.23;15.68;;;14.90;99.90;;;;;;5076057;28;20044;-60
2021/06/29 05:06:34;;;;;;;32.40;16.25;;;15.00;99.90;;;;;;5071898;28;20035;-61
2021/06/29 05:09:00;;;;;;;25.45;15.98;;;15.00;99.90;;;;;;5071372;28;20421;-62
2021/06/29 05:11:25;;;;;;;33.42;15.90;;;15.00;99.90;;;;;;5072405;28;20028;-61
2021/06/29 05:13:51;;;;;;;31.30;16.67;;;15.00;99.90;;;;;;5072463;28;20036;-60
2021/06/29 05:16:17;;;;;;;24.45;16.38;;;15.00;99.90;;;;;;5070689;28;20032;-59
2021/06/29 05:18:43;;;;;;;29.60;18.13;;;15.00;99.90;;;;;;5070833;28;20036;-62
2021/06/29 05:21:08;;;;;;;28.63;18.02;;;14.90;99.90;;;;;;5070323;28;20450;-60
2021/06/29 05:23:34;;;;;;;29.33;17.92;;;15.00;99.90;;;;;;5083196;28;20485;-59
2021/06/29 05:26:00;;;;;;;31.73;18.88;;;14.90;99.90;;;;;;5071305;28;20471;-61
2021/06/29 05:28:26;;;;;;;39.65;19.05;;;15.00;99.90;;;;;;5070559;28;20060;-60
2021/06/29 05:30:51;;;;;;;30.48;18.95;;;15.10;99.90;;;;;;5072993;28;20064;-61
2021/06/29 05:33:18;;;;;;;32.83;17.95;;;15.10;99.90;;;;;;5076262;28;20531;-60
2021/06/29 05:35:44;;;;;;;31.17;18.48;;;15.10;99.90;;;;;;5072262;28;20751;-60
2021/06/29 05:38:10;;;;;;;25.00;17.90;;;15.20;99.90;;;;;;5071686;28;20047;-61
2021/06/29 05:40:36;;;;;;;31.38;17.80;;;15.30;99.90;;;;;;5070850;28;20024;-60
2021/06/29 05:43:02;;;;;;;37.95;17.70;;;15.30;99.90;;;;;;5072867;28;20024;-61
2021/06/29 05:45:28;;;;;;;27.25;16.77;;;15.40;99.90;;;;;;5071992;28;20039;-60
2021/06/29 05:47:55;;;;;;;27.80;16.60;;;15.50;99.90;;;;;;5075473;28;20037;-60
2021/06/29 05:50:21;;;;;;;28.48;17.67;;;15.50;99.90;;;;;;5071029;28;20154;-60
2021/06/29 05:52:48;;;;;;;38.25;17.48;;;15.50;99.90;;;;;;5070026;28;20025;-60
2021/06/29 05:55:14;;;;;;;28.08;17.10;;;15.60;99.90;;;;;;5075317;28;20036;-60
2021/06/29 05:57:41;;;;;;;22.85;16.20;;;15.70;99.90;;;;;;5080205;28;20035;-60
2021/06/29 06:00:13;;;;;;;28.40;16.48;;;15.70;99.90;;;;;;5071036;28;20074;-60
2021/06/29 06:02:39;;;;;;;28.45;17.38;;;15.70;99.90;;;;;;5070234;28;20102;-60
2021/06/29 06:05:06;;;;;;;28.42;16.05;;;15.80;99.90;;;;;;5071716;28;20070;-61
2021/06/29 06:07:32;;;;;;;30.50;16.90;;;15.80;99.90;;;;;;5069195;28;20025;-60
2021/06/29 06:09:58;;;;;;;24.70;16.75;;;16.00;99.90;;;;;;5071694;28;20020;-61
2021/06/29 06:12:23;;;;;;;26.00;14.75;;;15.90;99.90;;;;;;5076432;28;20044;-60
2021/06/29 06:14:49;;;;;;;21.38;15.57;;;16.00;99.90;;;;;;5070438;28;20052;-61
2021/06/29 06:17:15;;;;;;;25.08;16.13;;;15.90;99.90;;;;;;5070616;28;20095;-60
2021/06/29 06:19:41;;;;;;;27.77;15.95;;;15.90;99.90;;;;;;5071184;28;20033;-61
2021/06/29 06:22:06;;;;;;;32.20;16.88;;;15.90;99.90;;;;;;5066584;28;20466;-60
2021/06/29 06:24:32;;;;;;;35.95;17.35;;;16.00;99.90;;;;;;5069023;28;20111;-60
2021/06/29 06:26:58;;;;;;;28.23;15.85;;;16.20;99.90;;;;;;5078137;28;20032;-62
2021/06/29 06:29:24;;;;;;;32.88;16.73;;;16.30;99.90;;;;;;5081487;28;20032;-60
2021/06/29 06:31:50;;;;;;;30.50;16.45;;;16.30;99.90;;;;;;5074420;28;20491;-60
2021/06/29 06:34:15;;;;;;;26.73;16.13;;;16.30;99.90;;;;;;5071573;28;20525;-60
2021/06/29 06:36:41;;;;;;;29.63;16.17;;;16.40;99.90;;;;;;5071406;28;20048;-60
2021/06/29 06:39:07;;;;;;;35.72;16.52;;;16.40;99.90;;;;;;5073704;28;20033;-59
2021/06/29 06:41:33;;;;;;;30.63;15.50;;;16.50;99.90;;;;;;5073812;28;20051;-59
2021/06/29 06:43:59;;;;;;;27.67;14.65;;;16.50;99.90;;;;;;5080489;28;20077;-59
2021/06/29 06:46:24;;;;;;;28.08;13.63;;;16.70;99.90;;;;;;5078337;28;20081;-59
2021/06/29 06:48:50;;;;;;;27.40;13.85;;;16.70;99.90;;;;;;5072088;28;20056;-59
2021/06/29 06:51:17;;;;;;;26.38;13.73;;;16.60;99.90;;;;;;5073747;28;20127;-61
2021/06/29 06:53:43;;;;;;;21.27;13.40;;;16.50;99.90;;;;;;5073318;28;20089;-60
2021/06/29 06:56:14;;;;;;;28.73;13.90;;;16.60;99.90;;;;;;5079720;28;20033;-61
2021/06/29 06:58:41;;;;;;;23.70;13.30;;;16.60;99.90;;;;;;5080246;28;20445;-59
2021/06/29 07:01:08;;;;;;;30.08;14.68;;;16.50;99.90;;;;;;5073754;28;20033;-59
2021/06/29 07:03:34;;;;;;;23.60;13.95;;;16.60;99.90;;;;;;5083484;28;20781;-61
2021/06/29 07:05:59;;;;;;;32.15;15.60;;;16.50;99.90;;;;;;5078549;28;20029;-61
2021/06/29 07:08:25;;;;;;;29.90;15.20;;;16.40;99.90;;;;;;5078417;28;20116;-58
2021/06/29 07:10:53;;;;;;;34.15;15.77;;;16.50;99.90;;;;;;5074543;28;20032;-59
2021/06/29 07:13:19;;;;;;;26.90;14.40;;;16.60;99.90;;;;;;5083640;28;20032;-61
2021/06/29 07:15:45;;;;;;;33.42;14.50;;;16.50;99.90;;;;;;5073753;28;20028;-59
2021/06/29 07:18:18;;;;;;;22.15;11.98;;;16.50;99.90;;;;;;5073164;28;20040;-60
2021/06/29 07:20:45;;;;;;;25.08;12.35;;;16.50;99.90;;;;;;5073244;28;20091;-61
2021/06/29 07:23:12;;;;;;;25.73;13.20;;;16.30;99.90;;;;;;5073423;28;20020;-60
2021/06/29 07:25:38;;;;;;;28.20;13.07;;;16.40;99.90;;;;;;5073881;28;20037;-58
2021/06/29 07:28:04;;;;;;;34.25;13.40;;;16.40;99.90;;;;;;5074586;28;20056;-60
2021/06/29 07:30:30;;;;;;;26.30;12.88;;;16.50;99.90;;;;;;5084114;28;20127;-60
2021/06/29 07:32:58;;;;;;;18.77;11.77;;;16.40;99.90;;;;;;5074174;28;20095;-59
2021/06/29 07:35:24;;;;;;;21.70;11.85;;;16.30;99.90;;;;;;5073340;28;20028;-60
2021/06/29 07:37:51;;;;;;;21.25;11.23;;;16.20;99.90;;;;;;5075434;28;20024;-59
2021/06/29 07:40:17;;;;;;;23.45;12.23;;;16.20;99.90;;;;;;5071997;28;20060;-59
2021/06/29 07:42:43;;;;;;;22.95;11.63;;;16.20;99.90;;;;;;5071834;28;20029;-60
2021/06/29 07:45:10;;;;;;;26.48;12.52;;;16.30;99.90;;;;;;5072904;28;20037;-62
2021/06/29 07:47:36;;;;;;;23.92;11.65;;;16.20;99.90;;;;;;5077910;28;20024;-60
2021/06/29 07:50:08;;;;;;;22.00;10.90;;;16.20;99.90;;;;;;5072068;28;20127;-59
2021/06/29 07:52:34;;;;;;;23.48;11.32;;;16.30;99.90;;;;;;5072325;28;20040;-60
2021/06/29 07:55:01;;;;;;;22.15;11.05;;;16.40;99.90;;;;;;5074062;28;20024;-61
2021/06/29 07:57:27;;;;;;;19.73;10.40;;;16.50;99.90;;;;;;5080374;28;20067;-59
2021/06/29 07:59:52;;;;;;;23.10;10.75;;;16.50;99.90;;;;;;5078497;28;20060;-61
2021/06/29 08:02:18;;;;;;;22.50;11.45;;;16.60;99.90;;;;;;5074494;28;20020;-58
2021/06/29 08:04:44;;;;;;;21.63;10.63;;;16.60;99.90;;;;;;5076372;28;20046;-59
2021/06/29 08:07:10;;;;;;;20.02;10.25;;;16.60;99.90;;;;;;5082648;28;20137;-60
2021/06/29 08:09:36;;;;;;;25.00;10.02;;;16.70;99.90;;;;;;5070026;28;20463;-60
2021/06/29 08:12:03;;;;;;;20.58;9.18;;;16.80;99.90;;;;;;5072549;28;20024;-60
2021/06/29 08:14:28;;;;;;;19.70;8.63;;;17.00;99.90;;;;;;5071605;28;20081;-59
2021/06/29 08:16:54;;;;;;;18.30;9.32;;;17.10;99.90;;;;;;5072430;28;20025;-59
2021/06/29 08:19:20;;;;;;;15.40;9.43;;;17.00;99.90;;;;;;5071983;28;20090;-60
2021/06/29 08:21:45;;;;;;;15.88;9.18;;;16.90;99.90;;;;;;5084099;28;20036;-60
2021/06/29 08:24:13;;;;;;;16.95;9.90;;;16.80;99.90;;;;;;5073846;28;20052;-60
2021/06/29 08:26:38;;;;;;;20.52;9.60;;;16.70;99.90;;;;;;5080158;28;20059;-60
2021/06/29 08:29:04;;;;;;;15.57;9.38;;;16.80;99.90;;;;;;5071498;28;20155;-60
2021/06/29 08:31:30;;;;;;;18.15;9.65;;;16.70;99.90;;;;;;5076855;28;20062;-60
2021/06/29 08:33:56;;;;;;;17.42;8.88;;;16.80;99.90;;;;;;5084132;28;20028;-59
2021/06/29 08:36:22;;;;;;;23.08;9.05;;;16.70;99.90;;;;;;5081165;28;20032;-60
2021/06/29 08:38:49;;;;;;;21.50;9.70;;;16.80;99.90;;;;;;5086941;28;20028;-60
2021/06/29 08:41:15;;;;;;;20.17;8.65;;;16.90;99.90;;;;;;5073906;28;20025;-61
2021/06/29 08:43:41;;;;;;;17.95;7.97;;;16.80;99.90;;;;;;5077806;28;20031;-59
2021/06/29 08:46:09;;;;;;;18.88;8.38;;;16.90;99.90;;;;;;5078588;28;20039;-60
2021/06/29 08:48:35;;;;;;;17.02;8.38;;;16.90;99.90;;;;;;5073845;28;20032;-59
2021/06/29 08:51:06;;;;;;;20.63;8.70;;;16.80;99.90;;;;;;5082074;28;20079;-59
2021/06/29 08:53:32;;;;;;;19.95;7.90;;;16.80;99.90;;;;;;5070330;28;20083;-60
2021/06/29 08:56:00;;;;;;;20.58;8.10;;;16.90;99.90;;;;;;5081292;28;20028;-59
2021/06/29 08:58:37;;;;;;;15.32;7.97;;;16.80;99.90;;;;;;5069821;28;20033;-60
2021/06/29 09:01:03;;;;;;;24.75;9.07;;;16.90;99.90;;;;;;5087854;28;20040;-59
2021/06/29 09:03:29;;;;;;;17.67;7.75;;;16.90;99.90;;;;;;5080557;28;20035;-60
2021/06/29 09:05:55;;;;;;;15.50;7.85;;;17.00;99.90;;;;;;5077764;28;20021;-59
2021/06/29 09:08:23;;;;;;;15.88;7.90;;;17.00;99.90;;;;;;5079767;28;20040;-61
2021/06/29 09:11:16;;;;;;;15.38;8.25;;;17.10;99.90;;;;;;5080686;28;20035;-60
2021/06/29 09:14:02;;;;;;;14.63;8.10;;;17.10;99.90;;;;;;5073196;28;20032;-60
2021/06/29 09:16:27;;;;;;;;;;;17.10;99.90;;;;;;5071222;28;20323;-60
2021/06/29 09:18:53;;;;;;;15.27;7.88;;;17.10;99.90;;;;;;5070677;28;19908;-60
2021/06/29 09:21:19;;;;;;;13.95;7.28;;;17.20;99.90;;;;;;5073149;28;20420;-61
2021/06/29 09:23:50;;;;;;;17.20;7.57;;;17.20;99.90;;;;;;5085451;28;20028;-61
2021/06/29 09:26:23;;;;;;;14.50;7.65;;;17.30;99.90;;;;;;5076806;28;20024;-61
2021/06/29 09:28:52;;;;;;;15.18;6.88;;;17.20;99.90;;;;;;5074340;28;20049;-60
2021/06/29 09:31:22;;;;;;;19.23;7.38;;;17.30;99.90;;;;;;5074284;28;20051;-60
2021/06/29 09:33:56;;;;;;;19.73;8.27;;;17.30;99.90;;;;;;5075463;28;20036;-61
2021/06/29 09:36:25;;;;;;;12.43;7.10;;;17.30;99.90;;;;;;5077501;28;20060;-60
2021/06/29 09:38:52;;;;;;;13.45;7.13;;;17.50;99.90;;;;;;5077191;28;20032;-60
2021/06/29 09:41:23;;;;;;;12.50;7.43;;;17.60;99.90;;;;;;5071794;28;20036;-60
2021/06/29 09:44:02;;;;;;;17.98;7.82;;;17.60;99.90;;;;;;5068890;28;20497;-61
2021/06/29 09:46:28;;;;;;;14.20;7.90;;;17.50;99.90;;;;;;5070591;28;20036;-61
2021/06/29 09:49:01;;;;;;;14.15;7.63;;;17.50;99.90;;;;;;5070204;28;20411;-60
2021/06/29 09:51:30;;;;;;;12.13;6.68;;;17.60;99.90;;;;;;5070906;28;20039;-59
2021/06/29 09:53:59;;;;;;;13.73;7.50;;;17.60;99.90;;;;;;5070444;28;20032;-60
2021/06/29 09:56:30;;;;;;;16.48;7.40;;;17.60;99.90;;;;;;5071080;28;20035;-60
2021/06/29 09:58:57;;;;;;;22.92;8.43;;;17.60;99.90;;;;;;5084510;28;20024;-60
2021/06/29 10:01:29;;;;;;;13.75;7.40;;;17.60;99.90;;;;;;5083286;28;20529;-61
2021/06/29 10:03:56;;;;;;;15.93;7.28;;;17.50;99.90;;;;;;5072161;28;20029;-61
2021/06/29 10:06:27;;;;;;;14.65;7.68;;;17.40;99.90;;;;;;5080031;28;20074;-60
2021/06/29 10:09:01;;;;;;;15.75;6.82;;;17.40;99.90;;;;;;5067533;28;20032;-61
2021/06/29 10:11:28;;;;;;;17.63;7.80;;;17.50;99.90;;;;;;5070845;28;20039;-61
2021/06/29 10:14:00;;;;;;;18.58;7.68;;;17.60;99.90;;;;;;5075487;28;20131;-60
2021/06/29 10:16:32;;;;;;;20.10;8.30;;;17.60;99.90;;;;;;5084931;28;20059;-59
2021/06/29 10:21:28;;;;;;;13.07;7.20;;;17.80;99.90;;;;;;5074504;28;20044;-60
2021/06/29 10:24:03;;;;;;;17.67;6.88;;;17.80;99.90;;;;;;5073329;28;20064;-61
2021/06/29 10:26:31;;;;;;;13.45;7.35;;;17.80;99.90;;;;;;5073378;28;20505;-61
2021/06/29 10:28:59;;;;;;;22.60;8.98;;;17.70;99.90;;;;;;5074307;28;20761;-60
2021/06/29 10:31:28;;;;;;;17.02;8.13;;;17.70;99.90;;;;;;5073045;28;20035;-60
2021/06/29 10:34:01;;;;;;;13.43;7.10;;;17.70;99.90;;;;;;5073902;28;20394;-60
2021/06/29 10:36:28;;;;;;;15.95;7.50;;;17.80;99.90;;;;;;5074471;28;20032;-61
2021/06/29 10:38:56;;;;;;;15.95;8.07;;;17.90;99.90;;;;;;5074308;28;20028;-59
2021/06/29 10:41:25;;;;;;;13.55;7.38;;;18.00;99.90;;;;;;5073777;28;20032;-60
2021/06/29 10:43:53;;;;;;;24.77;7.82;;;18.10;99.90;;;;;;5073616;28;20039;-61
2021/06/29 10:46:40;;;;;;;15.52;8.15;;;18.10;99.90;;;;;;5073259;28;20446;-60
2021/06/29 10:49:36;;;;;;;14.05;7.57;;;18.00;99.90;;;;;;5073363;28;20123;-60
2021/06/29 10:52:30;;;;;;;17.17;7.47;;;18.00;99.90;;;;;;5073286;28;20036;-59
2021/06/29 10:55:02;;;;;;;15.52;7.68;;;17.90;99.90;;;;;;5073289;28;20024;-59
2021/06/29 10:57:40;;;;;;;14.25;7.38;;;17.90;99.90;;;;;;5074102;28;20032;-62
2021/06/29 11:00:20;;;;;;;22.20;7.57;;;17.80;99.90;;;;;;5071990;28;20047;-61
2021/06/29 11:03:08;;;;;;;12.75;6.90;;;17.80;99.90;;;;;;5072197;28;20042;-60
2021/06/29 11:05:36;;;;;;;17.38;6.75;;;17.80;99.90;;;;;;5072173;28;20394;-59
2021/06/29 11:08:10;;;;;;;9.85;6.78;;;17.80;99.90;;;;;;5073693;28;20036;-61
2021/06/29 11:10:39;;;;;;;15.13;7.00;;;18.00;99.90;;;;;;5071922;28;20028;-61
2021/06/29 11:13:07;;;;;;;21.13;6.90;;;17.90;99.90;;;;;;5073635;28;20868;-59
2021/06/29 11:15:52;;;;;;;14.95;6.57;;;17.90;99.90;;;;;;5082748;28;20032;-62
2021/06/29 11:18:36;;;;;;;11.05;6.45;;;17.90;99.90;;;;;;5082138;28;20039;-60
2021/06/29 11:21:05;;;;;;;15.93;6.73;;;18.10;99.90;;;;;;5072425;28;20035;-59
2021/06/29 11:23:33;;;;;;;15.98;6.80;;;18.10;99.90;;;;;;5072586;28;20090;-60
2021/06/29 11:26:20;;;;;;;13.18;6.95;;;18.20;99.90;;;;;;5072616;28;20032;-59
2021/06/29 11:28:49;;;;;;;19.13;7.00;;;18.30;99.90;;;;;;5077218;28;20668;-63
2021/06/29 11:31:31;;;;;;;11.05;6.50;;;18.50;99.90;;;;;;5073073;28;20405;-60
2021/06/29 11:33:58;;;;;;;13.32;7.13;;;18.60;99.90;;;;;;5073073;28;20385;-60
2021/06/29 11:36:24;;;;;;;17.13;7.93;;;18.50;99.90;;;;;;5086651;28;20559;-59
2021/06/29 11:38:55;;;;;;;18.63;8.63;;;18.50;99.90;;;;;;5072205;28;20041;-60
2021/06/29 11:41:24;;;;;;;12.65;7.90;;;18.40;99.90;;;;;;5076497;28;20027;-61
2021/06/29 11:44:11;;;;;;;17.40;7.90;;;18.30;99.90;;;;;;5073105;28;20062;-60
2021/06/29 11:47:01;;;;;;;19.17;8.10;;;18.30;99.90;;;;;;5037918;28;20036;-60
2021/06/29 11:49:42;;;;;;;18.90;8.20;;;18.20;99.90;;;;;;5081418;28;20043;-60
2021/06/29 11:52:15;;;;;;;15.55;8.73;;;18.20;99.90;;;;;;5072092;28;20136;-60
2021/06/29 11:55:18;;;;;;;14.75;7.65;;;18.20;99.90;;;;;;5072880;28;20112;-60
2021/06/29 11:57:52;;;;;;;17.83;8.02;;;18.10;99.90;;;;;;5077343;28;20024;-60
2021/06/29 12:00:31;;;;;;;15.07;8.02;;;18.00;99.90;;;;;;5084524;28;20475;-60
2021/06/29 12:03:00;;;;;;;13.88;8.02;;;17.90;99.90;;;;;;5072945;28;20028;-60
2021/06/29 12:05:28;;;;;;;15.93;7.47;;;18.00;99.90;;;;;;5070753;28;20040;-60
2021/06/29 12:07:56;;;;;;;13.48;7.38;;;17.90;99.90;;;;;;5072693;28;20027;-61
2021/06/29 12:10:33;;;;;;;11.05;6.18;;;17.90;99.90;;;;;;5071805;28;20048;-61
2021/06/29 12:13:03;;;;;;;20.38;10.15;;;17.90;99.90;;;;;;5073331;28;20020;-61
2021/06/29 12:15:56;;;;;;;11.15;5.35;;;17.80;99.90;;;;;;5071360;28;20102;-61
2021/06/29 12:18:23;;;;;;;13.77;5.80;;;17.70;99.90;;;;;;5069051;28;20036;-61
2021/06/29 12:21:01;;;;;;;10.02;5.47;;;17.60;99.90;;;;;;5071356;28;20057;-60
2021/06/29 12:23:29;;;;;;;17.02;5.70;;;17.50;99.90;;;;;;5073010;28;20074;-59
2021/06/29 12:25:57;;;;;;;9.30;5.22;;;17.50;99.90;;;;;;5072019;28;20071;-60
2021/06/29 12:28:25;;;;;;;9.32;4.88;;;17.50;99.90;;;;;;5072378;28;20052;-59
2021/06/29 12:30:59;;;;;;;11.50;5.30;;;17.40;99.90;;;;;;5070289;28;20102;-62
2021/06/29 12:33:34;;;;;;;9.88;5.32;;;17.20;99.90;;;;;;5072607;28;20043;-61
2021/06/29 12:36:07;;;;;;;16.98;5.68;;;17.10;99.90;;;;;;5073086;28;20032;-60
2021/06/29 12:38:43;;;;;;;9.57;5.80;;;16.90;99.90;;;;;;5082230;28;20021;-59